sensor_id;sensor_type;location;lat;lon;timestamp;temperature;humidity
5578;DHT22;2811;51.900;10.734;2023-04-01T00:01:17;11.40;99.90
5578;DHT22;2811;51.900;10.734;2023-04-01T00:03:45;11.40;99.90
5578;DHT22;2811;51.900;10.734;2023-04-01T00:06:13;11.40;99.90
5578;DHT22;2811;51.900;10.734;2023-04-01T00:08:40;11.50;99.90
5578;DHT22;2811;51.900;10.734;2023-04-01T00:11:07;11.60;99.90
5578;DHT22;2811;51.900;10.734;2023-04-01T00:13:33;11.40;99.90
5578;DHT22;2811;51.900;10.734;2023-04-01T00:16:01;11.30;99.90
5578;DHT22;2811;51.900;10.734;2023-04-01T00:18:30;11.40;99.90
5578;DHT22;2811;51.900;10.734;2023-04-01T00:20:56;11.30;99.90
5578;DHT22;2811;51.900;10.734;2023-04-01T00:23:23;11.30;99.90
5578;DHT22;2811;51.900;10.734;2023-04-01T00:25:50;11.20;99.90
5578;DHT22;2811;51.900;10.734;2023-04-01T00:28:18;11.20;99.90
5578;DHT22;2811;51.900;10.734;2023-04-01T00:30:45;11.20;99.90
5578;DHT22;2811;51.900;10.734;2023-04-01T00:33:13;11.30;99.90
5578;DHT22;2811;51.900;10.734;2023-04-01T00:35:41;11.30;99.90
5578;DHT22;2811;51.900;10.734;2023-04-01T00:38:08;11.20;99.90
5578;DHT22;2811;51.900;10.734;2023-04-01T00:40:38;11.20;99.90
5578;DHT22;2811;51.900;10.734;2023-04-01T00:43:11;11.20;99.90
5578;DHT22;2811;51.900;10.734;2023-04-01T00:45:40;11.20;99.90
5578;DHT22;2811;51.900;10.734;2023-04-01T00:48:10;11.20;99.90
5578;DHT22;2811;51.900;10.734;2023-04-01T00:50:38;11.20;99.90
5578;DHT22;2811;51.900;10.734;2023-04-01T00:53:08;11.20;99.90
5578;DHT22;2811;51.900;10.734;2023-04-01T00:55:39;11.20;99.90
5578;DHT22;2811;51.900;10.734;2023-04-01T00:58:10;11.30;99.90
5578;DHT22;2811;51.900;10.734;2023-04-01T01:00:38;11.20;99.90
5578;DHT22;2811;51.900;10.734;2023-04-01T01:03:05;11.20;99.90
5578;DHT22;2811;51.900;10.734;2023-04-01T01:05:38;11.20;99.90
5578;DHT22;2811;51.900;10.734;2023-04-01T01:08:17;11.40;99.90
5578;DHT22;2811;51.900;10.734;2023-04-01T01:10:48;11.40;99.90
5578;DHT22;2811;51.900;10.734;2023-04-01T01:13:19;11.40;99.90
5578;DHT22;2811;51.900;10.734;2023-04-01T01:15:52;11.30;99.90
5578;DHT22;2811;51.900;10.734;2023-04-01T01:18:26;11.20;99.90
5578;DHT22;2811;51.900;10.734;2023-04-01T01:24:24;11.10;99.90
5578;DHT22;2811;51.900;10.734;2023-04-01T01:26:59;11.20;99.90
5578;DHT22;2811;51.900;10.734;2023-04-01T01:30:05;11.10;99.90
5578;DHT22;2811;51.900;10.734;2023-04-01T01:33:05;11.20;99.90
5578;DHT22;2811;51.900;10.734;2023-04-01T01:35:36;10.80;99.90
5578;DHT22;2811;51.900;10.734;2023-04-01T01:38:05;10.90;99.90
5578;DHT22;2811;51.900;10.734;2023-04-01T01:40:34;10.90;99.90
5578;DHT22;2811;51.900;10.734;2023-04-01T01:43:06;10.90;99.90
5578;DHT22;2811;51.900;10.734;2023-04-01T01:45:36;10.80;99.90
5578;DHT22;2811;51.900;10.734;2023-04-01T01:48:07;10.90;99.90
5578;DHT22;2811;51.900;10.734;2023-04-01T01:50:36;10.80;99.90
5578;DHT22;2811;51.900;10.734;2023-04-01T01:53:05;10.70;99.90
5578;DHT22;2811;51.900;10.734;2023-04-01T01:55:33;10.90;99.90
5578;DHT22;2811;51.900;10.734;2023-04-01T01:58:04;10.80;99.90
5578;DHT22;2811;51.900;10.734;2023-04-01T02:00:32;10.90;99.90
5578;DHT22;2811;51.900;10.734;2023-04-01T02:03:00;11.00;99.90
5578;DHT22;2811;51.900;10.734;2023-04-01T02:05:28;10.90;99.90
5578;DHT22;2811;51.900;10.734;2023-04-01T02:08:02;11.10;99.90
5578;DHT22;2811;51.900;10.734;2023-04-01T02:10:34;11.10;99.90
5578;DHT22;2811;51.900;10.734;2023-04-01T02:13:07;11.00;99.90
5578;DHT22;2811;51.900;10.734;2023-04-01T02:15:41;11.10;99.90
5578;DHT22;2811;51.900;10.734;2023-04-01T02:18:09;11.00;99.90
5578;DHT22;2811;51.900;10.734;2023-04-01T02:20:37;11.00;99.90
5578;DHT22;2811;51.900;10.734;2023-04-01T02:23:07;11.00;99.90
5578;DHT22;2811;51.900;10.734;2023-04-01T02:25:36;11.00;99.90
5578;DHT22;2811;51.900;10.734;2023-04-01T02:28:06;11.10;99.90
5578;DHT22;2811;51.900;10.734;2023-04-01T02:30:35;11.00;99.90
5578;DHT22;2811;51.900;10.734;2023-04-01T02:33:03;11.00;99.90
5578;DHT22;2811;51.900;10.734;2023-04-01T02:35:33;11.00;99.90
5578;DHT22;2811;51.900;10.734;2023-04-01T02:38:00;10.90;99.90
5578;DHT22;2811;51.900;10.734;2023-04-01T02:40:29;11.00;99.90
5578;DHT22;2811;51.900;10.734;2023-04-01T02:42:56;11.00;99.90
5578;DHT22;2811;51.900;10.734;2023-04-01T02:45:22;11.00;99.90
5578;DHT22;2811;51.900;10.734;2023-04-01T02:47:49;11.00;99.90
5578;DHT22;2811;51.900;10.734;2023-04-01T02:50:16;11.00;99.90
5578;DHT22;2811;51.900;10.734;2023-04-01T02:52:42;11.10;99.90
5578;DHT22;2811;51.900;10.734;2023-04-01T02:55:09;11.00;99.90
5578;DHT22;2811;51.900;10.734;2023-04-01T02:57:37;11.00;99.90
5578;DHT22;2811;51.900;10.734;2023-04-01T03:00:05;11.10;99.90
5578;DHT22;2811;51.900;10.734;2023-04-01T03:02:37;11.20;99.90
5578;DHT22;2811;51.900;10.734;2023-04-01T03:05:04;11.20;99.90
5578;DHT22;2811;51.900;10.734;2023-04-01T03:07:31;11.40;99.90
5578;DHT22;2811;51.900;10.734;2023-04-01T03:09:58;11.30;99.90
5578;DHT22;2811;51.900;10.734;2023-04-01T03:12:24;11.30;99.90
5578;DHT22;2811;51.900;10.734;2023-04-01T03:14:52;11.10;99.90
5578;DHT22;2811;51.900;10.734;2023-04-01T03:17:19;11.10;99.90
5578;DHT22;2811;51.900;10.734;2023-04-01T03:19:45;11.10;99.90
5578;DHT22;2811;51.900;10.734;2023-04-01T03:22:12;11.20;99.90
5578;DHT22;2811;51.900;10.734;2023-04-01T03:24:39;11.30;99.90
5578;DHT22;2811;51.900;10.734;2023-04-01T03:27:05;11.10;99.90
5578;DHT22;2811;51.900;10.734;2023-04-01T03:29:32;11.10;99.90
5578;DHT22;2811;51.900;10.734;2023-04-01T03:32:00;11.20;99.90
5578;DHT22;2811;51.900;10.734;2023-04-01T03:34:27;11.10;99.90
5578;DHT22;2811;51.900;10.734;2023-04-01T03:36:53;10.80;99.90
5578;DHT22;2811;51.900;10.734;2023-04-01T03:39:20;11.00;99.90
5578;DHT22;2811;51.900;10.734;2023-04-01T03:41:47;10.90;99.90
5578;DHT22;2811;51.900;10.734;2023-04-01T03:44:14;10.90;99.90
5578;DHT22;2811;51.900;10.734;2023-04-01T03:46:41;10.90;99.90
5578;DHT22;2811;51.900;10.734;2023-04-01T03:49:10;10.90;99.90
5578;DHT22;2811;51.900;10.734;2023-04-01T03:51:37;10.80;99.90
5578;DHT22;2811;51.900;10.734;2023-04-01T03:54:04;11.00;99.90
5578;DHT22;2811;51.900;10.734;2023-04-01T03:56:31;10.90;99.90
5578;DHT22;2811;51.900;10.734;2023-04-01T03:58:58;10.90;99.90
5578;DHT22;2811;51.900;10.734;2023-04-01T04:01:27;10.80;99.90
5578;DHT22;2811;51.900;10.734;2023-04-01T04:03:55;10.60;99.90
5578;DHT22;2811;51.900;10.734;2023-04-01T04:06:27;10.60;99.90
5578;DHT22;2811;51.900;10.734;2023-04-01T04:08:54;10.70;99.90
5578;DHT22;2811;51.900;10.734;2023-04-01T04:11:21;10.80;99.90
5578;DHT22;2811;51.900;10.734;2023-04-01T04:13:48;10.90;99.90
5578;DHT22;2811;51.900;10.734;2023-04-01T04:16:16;10.90;99.90
5578;DHT22;2811;51.900;10.734;2023-04-01T04:18:43;10.80;99.90
5578;DHT22;2811;51.900;10.734;2023-04-01T04:21:12;10.80;99.90
5578;DHT22;2811;51.900;10.734;2023-04-01T04:23:40;11.00;99.90
5578;DHT22;2811;51.900;10.734;2023-04-01T04:26:09;10.90;99.90
5578;DHT22;2811;51.900;10.734;2023-04-01T04:28:36;11.10;99.90
5578;DHT22;2811;51.900;10.734;2023-04-01T04:31:03;10.90;99.90
5578;DHT22;2811;51.900;10.734;2023-04-01T04:33:31;10.90;99.90
5578;DHT22;2811;51.900;10.734;2023-04-01T04:35:59;11.00;99.90
5578;DHT22;2811;51.900;10.734;2023-04-01T04:38:26;11.00;99.90
5578;DHT22;2811;51.900;10.734;2023-04-01T04:40:54;10.90;99.90
5578;DHT22;2811;51.900;10.734;2023-04-01T04:43:21;11.00;99.90
5578;DHT22;2811;51.900;10.734;2023-04-01T04:45:47;10.80;99.90
5578;DHT22;2811;51.900;10.734;2023-04-01T04:48:15;10.80;99.90
5578;DHT22;2811;51.900;10.734;2023-04-01T04:50:44;10.70;99.90
5578;DHT22;2811;51.900;10.734;2023-04-01T04:53:11;10.40;99.90
5578;DHT22;2811;51.900;10.734;2023-04-01T04:55:42;10.60;99.90
5578;DHT22;2811;51.900;10.734;2023-04-01T04:58:10;10.60;99.90
5578;DHT22;2811;51.900;10.734;2023-04-01T05:00:37;10.60;99.90
5578;DHT22;2811;51.900;10.734;2023-04-01T05:03:03;10.80;99.90
5578;DHT22;2811;51.900;10.734;2023-04-01T05:05:30;10.70;99.90
5578;DHT22;2811;51.900;10.734;2023-04-01T05:07:57;10.60;99.90
5578;DHT22;2811;51.900;10.734;2023-04-01T05:10:23;10.60;99.90
5578;DHT22;2811;51.900;10.734;2023-04-01T05:12:50;10.80;99.90
5578;DHT22;2811;51.900;10.734;2023-04-01T05:15:18;10.80;99.90
5578;DHT22;2811;51.900;10.734;2023-04-01T05:17:45;10.80;99.90
5578;DHT22;2811;51.900;10.734;2023-04-01T05:20:12;10.90;99.90
5578;DHT22;2811;51.900;10.734;2023-04-01T05:22:39;10.80;99.90
5578;DHT22;2811;51.900;10.734;2023-04-01T05:25:06;10.80;99.90
5578;DHT22;2811;51.900;10.734;2023-04-01T05:27:33;10.70;99.90
5578;DHT22;2811;51.900;10.734;2023-04-01T05:29:59;10.80;99.90
5578;DHT22;2811;51.900;10.734;2023-04-01T05:32:27;10.90;99.90
5578;DHT22;2811;51.900;10.734;2023-04-01T05:34:54;10.80;99.90
5578;DHT22;2811;51.900;10.734;2023-04-01T05:37:21;10.80;99.90
5578;DHT22;2811;51.900;10.734;2023-04-01T05:39:48;10.80;99.90
5578;DHT22;2811;51.900;10.734;2023-04-01T05:42:15;10.80;99.90
5578;DHT22;2811;51.900;10.734;2023-04-01T05:44:42;10.80;99.90
5578;DHT22;2811;51.900;10.734;2023-04-01T05:47:08;11.00;99.90
5578;DHT22;2811;51.900;10.734;2023-04-01T05:49:36;10.90;99.90
5578;DHT22;2811;51.900;10.734;2023-04-01T05:52:03;10.70;99.90
5578;DHT22;2811;51.900;10.734;2023-04-01T05:54:29;10.80;99.90
5578;DHT22;2811;51.900;10.734;2023-04-01T05:56:56;10.70;99.90
5578;DHT22;2811;51.900;10.734;2023-04-01T05:59:23;10.70;99.90
5578;DHT22;2811;51.900;10.734;2023-04-01T06:01:49;10.60;99.90
5578;DHT22;2811;51.900;10.734;2023-04-01T06:04:17;10.60;99.90
5578;DHT22;2811;51.900;10.734;2023-04-01T06:06:46;10.60;99.90
5578;DHT22;2811;51.900;10.734;2023-04-01T06:09:14;10.80;99.90
5578;DHT22;2811;51.900;10.734;2023-04-01T06:11:51;10.90;99.90
5578;DHT22;2811;51.900;10.734;2023-04-01T06:14:30;11.10;99.90
5578;DHT22;2811;51.900;10.734;2023-04-01T06:17:12;11.00;99.90
5578;DHT22;2811;51.900;10.734;2023-04-01T06:19:50;11.00;99.90
5578;DHT22;2811;51.900;10.734;2023-04-01T06:22:43;11.20;99.90
5578;DHT22;2811;51.900;10.734;2023-04-01T06:25:33;11.40;99.90
5578;DHT22;2811;51.900;10.734;2023-04-01T06:31:26;11.80;99.90
5578;DHT22;2811;51.900;10.734;2023-04-01T06:34:13;12.10;99.90
5578;DHT22;2811;51.900;10.734;2023-04-01T06:36:54;12.30;99.90
5578;DHT22;2811;51.900;10.734;2023-04-01T06:39:35;12.30;99.90
5578;DHT22;2811;51.900;10.734;2023-04-01T06:44:55;12.30;99.90
5578;DHT22;2811;51.900;10.734;2023-04-01T06:47:30;12.10;99.90
5578;DHT22;2811;51.900;10.734;2023-04-01T06:50:05;12.20;99.90
5578;DHT22;2811;51.900;10.734;2023-04-01T06:52:41;12.30;99.90
5578;DHT22;2811;51.900;10.734;2023-04-01T06:55:26;12.40;99.90
5578;DHT22;2811;51.900;10.734;2023-04-01T06:57:55;12.10;99.90
5578;DHT22;2811;51.900;10.734;2023-04-01T07:00:27;12.30;99.90
5578;DHT22;2811;51.900;10.734;2023-04-01T07:03:02;12.50;99.90
5578;DHT22;2811;51.900;10.734;2023-04-01T07:05:33;12.70;99.90
5578;DHT22;2811;51.900;10.734;2023-04-01T07:08:02;12.60;99.90
5578;DHT22;2811;51.900;10.734;2023-04-01T07:10:35;12.60;99.90
5578;DHT22;2811;51.900;10.734;2023-04-01T07:13:09;12.60;99.90
5578;DHT22;2811;51.900;10.734;2023-04-01T07:15:39;12.60;99.90
5578;DHT22;2811;51.900;10.734;2023-04-01T07:18:12;12.70;99.90
5578;DHT22;2811;51.900;10.734;2023-04-01T07:20:41;12.90;99.90
5578;DHT22;2811;51.900;10.734;2023-04-01T07:23:16;13.10;99.90
5578;DHT22;2811;51.900;10.734;2023-04-01T07:25:52;12.80;99.90
5578;DHT22;2811;51.900;10.734;2023-04-01T07:28:20;12.60;99.90
5578;DHT22;2811;51.900;10.734;2023-04-01T07:30:57;12.40;99.90
5578;DHT22;2811;51.900;10.734;2023-04-01T07:33:33;12.50;99.90
5578;DHT22;2811;51.900;10.734;2023-04-01T07:36:08;12.40;99.90
5578;DHT22;2811;51.900;10.734;2023-04-01T07:38:47;12.50;99.90
5578;DHT22;2811;51.900;10.734;2023-04-01T07:41:25;12.50;99.90
5578;DHT22;2811;51.900;10.734;2023-04-01T07:44:02;12.60;99.90
5578;DHT22;2811;51.900;10.734;2023-04-01T07:46:50;12.50;99.90
5578;DHT22;2811;51.900;10.734;2023-04-01T07:49:24;12.40;99.90
5578;DHT22;2811;51.900;10.734;2023-04-01T07:51:57;12.50;99.90
5578;DHT22;2811;51.900;10.734;2023-04-01T07:54:32;12.70;99.90
5578;DHT22;2811;51.900;10.734;2023-04-01T07:57:06;12.90;99.90
5578;DHT22;2811;51.900;10.734;2023-04-01T07:59:41;13.10;99.90
5578;DHT22;2811;51.900;10.734;2023-04-01T08:02:20;13.10;99.90
5578;DHT22;2811;51.900;10.734;2023-04-01T08:04:58;12.70;99.90
5578;DHT22;2811;51.900;10.734;2023-04-01T08:07:32;12.70;99.90
5578;DHT22;2811;51.900;10.734;2023-04-01T08:10:09;12.90;99.90
5578;DHT22;2811;51.900;10.734;2023-04-01T08:12:47;13.10;99.90
5578;DHT22;2811;51.900;10.734;2023-04-01T08:15:20;13.10;99.90
5578;DHT22;2811;51.900;10.734;2023-04-01T08:17:55;13.40;99.90
5578;DHT22;2811;51.900;10.734;2023-04-01T08:20:32;13.10;99.90
5578;DHT22;2811;51.900;10.734;2023-04-01T08:23:07;12.50;99.90
5578;DHT22;2811;51.900;10.734;2023-04-01T08:25:39;12.50;99.90
5578;DHT22;2811;51.900;10.734;2023-04-01T08:28:15;12.40;99.90
5578;DHT22;2811;51.900;10.734;2023-04-01T08:30:45;12.30;99.90
5578;DHT22;2811;51.900;10.734;2023-04-01T08:33:17;12.40;99.90
5578;DHT22;2811;51.900;10.734;2023-04-01T08:35:49;12.40;99.90
5578;DHT22;2811;51.900;10.734;2023-04-01T08:38:20;12.40;99.90
5578;DHT22;2811;51.900;10.734;2023-04-01T08:41:20;12.40;99.90
5578;DHT22;2811;51.900;10.734;2023-04-01T08:44:10;12.50;99.90
5578;DHT22;2811;51.900;10.734;2023-04-01T08:47:17;12.50;99.90
5578;DHT22;2811;51.900;10.734;2023-04-01T08:50:23;12.90;99.90
5578;DHT22;2811;51.900;10.734;2023-04-01T08:52:58;12.80;99.90
5578;DHT22;2811;51.900;10.734;2023-04-01T08:55:40;12.80;99.90
5578;DHT22;2811;51.900;10.734;2023-04-01T08:58:45;12.80;99.90
5578;DHT22;2811;51.900;10.734;2023-04-01T09:04:25;13.20;99.90
5578;DHT22;2811;51.900;10.734;2023-04-01T09:07:05;13.30;99.90
5578;DHT22;2811;51.900;10.734;2023-04-01T09:09:50;13.40;99.90
5578;DHT22;2811;51.900;10.734;2023-04-01T09:12:45;13.70;99.90
5578;DHT22;2811;51.900;10.734;2023-04-01T09:15:42;13.50;99.90
5578;DHT22;2811;51.900;10.734;2023-04-01T09:18:32;13.70;99.90
5578;DHT22;2811;51.900;10.734;2023-04-01T09:21:18;13.90;99.90
5578;DHT22;2811;51.900;10.734;2023-04-01T09:27:04;14.30;99.90
5578;DHT22;2811;51.900;10.734;2023-04-01T09:29:51;14.30;99.90
5578;DHT22;2811;51.900;10.734;2023-04-01T09:32:37;14.40;99.90
5578;DHT22;2811;51.900;10.734;2023-04-01T09:35:20;14.50;99.90
5578;DHT22;2811;51.900;10.734;2023-04-01T09:37:53;14.50;99.90
5578;DHT22;2811;51.900;10.734;2023-04-01T09:40:30;14.50;99.90
5578;DHT22;2811;51.900;10.734;2023-04-01T09:43:14;14.10;99.90
5578;DHT22;2811;51.900;10.734;2023-04-01T09:45:48;14.30;99.90
5578;DHT22;2811;51.900;10.734;2023-04-01T09:48:30;14.30;99.90
5578;DHT22;2811;51.900;10.734;2023-04-01T09:51:06;14.50;99.90
5578;DHT22;2811;51.900;10.734;2023-04-01T09:53:48;14.20;99.90
5578;DHT22;2811;51.900;10.734;2023-04-01T09:56:53;13.90;99.90
5578;DHT22;2811;51.900;10.734;2023-04-01T09:59:40;13.80;99.90
5578;DHT22;2811;51.900;10.734;2023-04-01T10:02:47;13.90;99.90
5578;DHT22;2811;51.900;10.734;2023-04-01T10:06:00;14.10;99.90
5578;DHT22;2811;51.900;10.734;2023-04-01T10:09:10;14.30;99.90
5578;DHT22;2811;51.900;10.734;2023-04-01T10:12:08;14.40;99.90
5578;DHT22;2811;51.900;10.734;2023-04-01T10:15:15;14.30;99.90
5578;DHT22;2811;51.900;10.734;2023-04-01T10:18:18;14.50;99.90
5578;DHT22;2811;51.900;10.734;2023-04-01T10:27:10;14.70;99.90
5578;DHT22;2811;51.900;10.734;2023-04-01T10:30:23;14.80;99.90
5578;DHT22;2811;51.900;10.734;2023-04-01T10:39:48;14.80;99.90
5578;DHT22;2811;51.900;10.734;2023-04-01T10:49:15;14.60;99.90
5578;DHT22;2811;51.900;10.734;2023-04-01T10:52:16;14.70;99.90
5578;DHT22;2811;51.900;10.734;2023-04-01T10:54:49;14.70;99.90
5578;DHT22;2811;51.900;10.734;2023-04-01T10:57:50;14.70;99.90
5578;DHT22;2811;51.900;10.734;2023-04-01T11:00:38;14.50;99.90
5578;DHT22;2811;51.900;10.734;2023-04-01T11:04:01;14.50;99.90
5578;DHT22;2811;51.900;10.734;2023-04-01T11:07:08;14.60;99.90
5578;DHT22;2811;51.900;10.734;2023-04-01T11:10:24;14.70;99.90
5578;DHT22;2811;51.900;10.734;2023-04-01T11:16:17;14.80;99.90
5578;DHT22;2811;51.900;10.734;2023-04-01T11:19:17;14.70;99.90
5578;DHT22;2811;51.900;10.734;2023-04-01T11:25:27;14.60;99.90
5578;DHT22;2811;51.900;10.734;2023-04-01T11:28:15;14.70;99.90
5578;DHT22;2811;51.900;10.734;2023-04-01T11:31:00;14.90;99.90
5578;DHT22;2811;51.900;10.734;2023-04-01T11:33:33;15.00;99.90
5578;DHT22;2811;51.900;10.734;2023-04-01T11:36:15;15.10;99.90
5578;DHT22;2811;51.900;10.734;2023-04-01T11:38:56;15.00;99.90
5578;DHT22;2811;51.900;10.734;2023-04-01T11:41:33;14.90;99.90
5578;DHT22;2811;51.900;10.734;2023-04-01T11:44:15;14.80;99.90
5578;DHT22;2811;51.900;10.734;2023-04-01T11:46:49;14.60;99.90
5578;DHT22;2811;51.900;10.734;2023-04-01T11:49:27;14.70;99.90
5578;DHT22;2811;51.900;10.734;2023-04-01T11:52:15;14.70;99.90
5578;DHT22;2811;51.900;10.734;2023-04-01T11:55:23;15.10;99.90
5578;DHT22;2811;51.900;10.734;2023-04-01T11:58:07;15.20;99.90
5578;DHT22;2811;51.900;10.734;2023-04-01T12:00:55;15.40;99.90
5578;DHT22;2811;51.900;10.734;2023-04-01T12:04:04;15.50;99.90
5578;DHT22;2811;51.900;10.734;2023-04-01T12:06:38;15.40;99.90
5578;DHT22;2811;51.900;10.734;2023-04-01T12:09:14;15.10;99.90
5578;DHT22;2811;51.900;10.734;2023-04-01T12:11:50;15.00;99.90
5578;DHT22;2811;51.900;10.734;2023-04-01T12:14:24;15.10;99.90
5578;DHT22;2811;51.900;10.734;2023-04-01T12:16:59;14.70;99.90
5578;DHT22;2811;51.900;10.734;2023-04-01T12:19:35;14.40;99.90
5578;DHT22;2811;51.900;10.734;2023-04-01T12:22:22;14.00;99.90
5578;DHT22;2811;51.900;10.734;2023-04-01T12:24:55;13.80;99.90
5578;DHT22;2811;51.900;10.734;2023-04-01T12:27:52;13.60;99.90
5578;DHT22;2811;51.900;10.734;2023-04-01T12:30:45;13.70;99.90
5578;DHT22;2811;51.900;10.734;2023-04-01T12:33:29;14.10;99.90
5578;DHT22;2811;51.900;10.734;2023-04-01T12:36:10;13.90;99.90
5578;DHT22;2811;51.900;10.734;2023-04-01T12:38:50;13.90;99.90
5578;DHT22;2811;51.900;10.734;2023-04-01T12:41:32;13.90;99.90
5578;DHT22;2811;51.900;10.734;2023-04-01T12:44:29;14.00;99.90
5578;DHT22;2811;51.900;10.734;2023-04-01T12:53:14;14.50;99.90
5578;DHT22;2811;51.900;10.734;2023-04-01T12:55:43;14.30;99.90
5578;DHT22;2811;51.900;10.734;2023-04-01T12:58:40;14.00;99.90
5578;DHT22;2811;51.900;10.734;2023-04-01T13:01:30;14.30;99.90
5578;DHT22;2811;51.900;10.734;2023-04-01T13:04:35;14.70;99.90
5578;DHT22;2811;51.900;10.734;2023-04-01T13:07:28;14.90;99.90
5578;DHT22;2811;51.900;10.734;2023-04-01T13:10:04;14.40;99.90
5578;DHT22;2811;51.900;10.734;2023-04-01T13:12:45;14.60;99.90
5578;DHT22;2811;51.900;10.734;2023-04-01T13:15:24;15.00;99.90
5578;DHT22;2811;51.900;10.734;2023-04-01T13:17:54;15.10;99.90
5578;DHT22;2811;51.900;10.734;2023-04-01T13:20:34;15.30;99.90
5578;DHT22;2811;51.900;10.734;2023-04-01T13:23:10;15.00;99.90
5578;DHT22;2811;51.900;10.734;2023-04-01T13:25:43;15.10;99.90
5578;DHT22;2811;51.900;10.734;2023-04-01T13:28:18;15.10;99.90
5578;DHT22;2811;51.900;10.734;2023-04-01T13:30:55;15.30;99.90
5578;DHT22;2811;51.900;10.734;2023-04-01T13:33:30;15.10;99.90
5578;DHT22;2811;51.900;10.734;2023-04-01T13:36:11;15.00;99.90
5578;DHT22;2811;51.900;10.734;2023-04-01T13:39:02;15.10;99.90
5578;DHT22;2811;51.900;10.734;2023-04-01T13:41:43;14.90;99.90
5578;DHT22;2811;51.900;10.734;2023-04-01T13:44:19;14.70;99.90
5578;DHT22;2811;51.900;10.734;2023-04-01T13:47:10;14.40;99.90
5578;DHT22;2811;51.900;10.734;2023-04-01T13:52:55;13.80;99.90
5578;DHT22;2811;51.900;10.734;2023-04-01T13:55:34;13.70;99.90
5578;DHT22;2811;51.900;10.734;2023-04-01T13:58:31;13.80;99.90
5578;DHT22;2811;51.900;10.734;2023-04-01T14:01:05;13.70;99.90
5578;DHT22;2811;51.900;10.734;2023-04-01T14:04:14;13.70;99.90
5578;DHT22;2811;51.900;10.734;2023-04-01T14:06:54;13.70;99.90
5578;DHT22;2811;51.900;10.734;2023-04-01T14:09:54;13.80;99.90
5578;DHT22;2811;51.900;10.734;2023-04-01T14:12:30;13.80;99.90
5578;DHT22;2811;51.900;10.734;2023-04-01T14:15:22;13.60;99.90
5578;DHT22;2811;51.900;10.734;2023-04-01T14:18:07;13.40;99.90
5578;DHT22;2811;51.900;10.734;2023-04-01T14:20:40;13.40;99.90
5578;DHT22;2811;51.900;10.734;2023-04-01T14:23:20;13.20;99.90
5578;DHT22;2811;51.900;10.734;2023-04-01T14:26:01;13.10;99.90
5578;DHT22;2811;51.900;10.734;2023-04-01T14:28:37;13.10;99.90
5578;DHT22;2811;51.900;10.734;2023-04-01T14:31:34;13.20;99.90
5578;DHT22;2811;51.900;10.734;2023-04-01T14:34:12;13.10;99.90
5578;DHT22;2811;51.900;10.734;2023-04-01T14:36:50;13.00;99.90
5578;DHT22;2811;51.900;10.734;2023-04-01T14:39:29;12.80;99.90
5578;DHT22;2811;51.900;10.734;2023-04-01T14:42:14;12.90;99.90
5578;DHT22;2811;51.900;10.734;2023-04-01T14:45:02;12.70;99.90
5578;DHT22;2811;51.900;10.734;2023-04-01T14:47:48;12.60;99.90
5578;DHT22;2811;51.900;10.734;2023-04-01T14:50:18;12.60;99.90
5578;DHT22;2811;51.900;10.734;2023-04-01T14:52:55;12.70;99.90
5578;DHT22;2811;51.900;10.734;2023-04-01T14:55:32;12.70;99.90
5578;DHT22;2811;51.900;10.734;2023-04-01T14:58:09;12.60;99.90
5578;DHT22;2811;51.900;10.734;2023-04-01T15:00:50;12.50;99.90
5578;DHT22;2811;51.900;10.734;2023-04-01T15:03:25;12.40;99.90
5578;DHT22;2811;51.900;10.734;2023-04-01T15:06:00;12.40;99.90
5578;DHT22;2811;51.900;10.734;2023-04-01T15:08:43;12.40;99.90
5578;DHT22;2811;51.900;10.734;2023-04-01T15:11:26;12.30;99.90
5578;DHT22;2811;51.900;10.734;2023-04-01T15:14:17;12.30;99.90
5578;DHT22;2811;51.900;10.734;2023-04-01T15:16:54;12.20;99.90
5578;DHT22;2811;51.900;10.734;2023-04-01T15:19:31;12.10;99.90
5578;DHT22;2811;51.900;10.734;2023-04-01T15:25:13;12.00;99.90
5578;DHT22;2811;51.900;10.734;2023-04-01T15:27:50;12.10;99.90
5578;DHT22;2811;51.900;10.734;2023-04-01T15:30:24;12.10;99.90
5578;DHT22;2811;51.900;10.734;2023-04-01T15:33:02;12.00;99.90
5578;DHT22;2811;51.900;10.734;2023-04-01T15:35:40;12.00;99.90
5578;DHT22;2811;51.900;10.734;2023-04-01T15:38:18;11.90;99.90
5578;DHT22;2811;51.900;10.734;2023-04-01T15:40:52;12.00;99.90
5578;DHT22;2811;51.900;10.734;2023-04-01T15:43:29;11.90;99.90
5578;DHT22;2811;51.900;10.734;2023-04-01T15:49:11;12.00;99.90
5578;DHT22;2811;51.900;10.734;2023-04-01T15:54:59;12.00;99.90
5578;DHT22;2811;51.900;10.734;2023-04-01T15:57:36;11.90;99.90
5578;DHT22;2811;51.900;10.734;2023-04-01T16:00:21;11.80;99.90
5578;DHT22;2811;51.900;10.734;2023-04-01T16:02:54;11.70;99.90
5578;DHT22;2811;51.900;10.734;2023-04-01T16:05:40;11.60;99.90
5578;DHT22;2811;51.900;10.734;2023-04-01T16:08:33;11.60;99.90
5578;DHT22;2811;51.900;10.734;2023-04-01T16:11:11;11.40;99.90
5578;DHT22;2811;51.900;10.734;2023-04-01T16:13:52;11.30;99.90
5578;DHT22;2811;51.900;10.734;2023-04-01T16:16:28;11.30;99.90
5578;DHT22;2811;51.900;10.734;2023-04-01T16:19:22;11.10;99.90
5578;DHT22;2811;51.900;10.734;2023-04-01T16:21:54;11.00;99.90
5578;DHT22;2811;51.900;10.734;2023-04-01T16:24:32;10.90;99.90
5578;DHT22;2811;51.900;10.734;2023-04-01T16:27:02;10.90;99.90
5578;DHT22;2811;51.900;10.734;2023-04-01T16:29:38;10.90;99.90
5578;DHT22;2811;51.900;10.734;2023-04-01T16:32:19;10.90;99.90
5578;DHT22;2811;51.900;10.734;2023-04-01T16:34:56;10.90;99.90
5578;DHT22;2811;51.900;10.734;2023-04-01T16:37:31;10.80;99.90
5578;DHT22;2811;51.900;10.734;2023-04-01T16:40:11;10.80;99.90
5578;DHT22;2811;51.900;10.734;2023-04-01T16:42:46;10.80;99.90
5578;DHT22;2811;51.900;10.734;2023-04-01T16:45:24;10.80;99.90
5578;DHT22;2811;51.900;10.734;2023-04-01T16:47:55;10.60;99.90
5578;DHT22;2811;51.900;10.734;2023-04-01T16:50:23;10.40;99.90
5578;DHT22;2811;51.900;10.734;2023-04-01T16:52:59;10.10;99.90
5578;DHT22;2811;51.900;10.734;2023-04-01T16:55:35;9.90;99.90
5578;DHT22;2811;51.900;10.734;2023-04-01T16:58:08;9.60;99.90
5578;DHT22;2811;51.900;10.734;2023-04-01T17:00:40;9.60;99.90
5578;DHT22;2811;51.900;10.734;2023-04-01T17:03:12;9.40;99.90
5578;DHT22;2811;51.900;10.734;2023-04-01T17:06:22;9.40;99.90
5578;DHT22;2811;51.900;10.734;2023-04-01T17:09:01;9.40;99.90
5578;DHT22;2811;51.900;10.734;2023-04-01T17:11:36;9.30;99.90
5578;DHT22;2811;51.900;10.734;2023-04-01T17:14:14;9.70;99.90
5578;DHT22;2811;51.900;10.734;2023-04-01T17:17:17;9.10;99.90
5578;DHT22;2811;51.900;10.734;2023-04-01T17:19:52;9.10;99.90
5578;DHT22;2811;51.900;10.734;2023-04-01T17:22:31;9.10;99.90
5578;DHT22;2811;51.900;10.734;2023-04-01T17:25:08;8.90;99.90
5578;DHT22;2811;51.900;10.734;2023-04-01T17:27:44;8.80;99.90
5578;DHT22;2811;51.900;10.734;2023-04-01T17:30:26;9.30;99.90
5578;DHT22;2811;51.900;10.734;2023-04-01T17:33:11;8.70;99.90
5578;DHT22;2811;51.900;10.734;2023-04-01T17:35:47;8.70;99.90
5578;DHT22;2811;51.900;10.734;2023-04-01T17:38:20;8.70;99.90
5578;DHT22;2811;51.900;10.734;2023-04-01T17:40:59;8.70;99.90
5578;DHT22;2811;51.900;10.734;2023-04-01T17:43:35;8.80;99.90
5578;DHT22;2811;51.900;10.734;2023-04-01T17:46:24;8.60;99.90
5578;DHT22;2811;51.900;10.734;2023-04-01T17:49:00;8.60;99.90